createdAt,value
2023-05-15T00:04:32.367Z,99518.17
2023-05-15T00:07:35.949Z,99518.14
2023-05-15T00:10:42.801Z,99517.23
2023-05-15T00:13:50.582Z,99518.94
2023-05-15T00:16:52.554Z,99513.40
2023-05-15T00:19:57.293Z,99517.59
2023-05-15T00:22:59.368Z,99515.40
2023-05-15T00:26:01.505Z,99511.98
2023-05-15T00:29:03.789Z,99511.61
2023-05-15T00:32:06.881Z,99514.77
2023-05-15T00:35:09.372Z,99511.14
2023-05-15T00:38:12.038Z,99515.64
2023-05-15T00:41:15.635Z,99517.45
2023-05-15T00:44:19.826Z,99514.02
2023-05-15T00:47:22.910Z,99508.61
2023-05-15T00:50:26.058Z,99508.75
2023-05-15T00:53:28.961Z,99509.64
2023-05-15T00:56:33.564Z,99506.41
2023-05-15T00:59:36.865Z,99504.84
2023-05-15T01:02:38.994Z,99502.63
2023-05-15T01:05:44.671Z,99495.21
2023-05-15T01:08:47.646Z,99498.85
2023-05-15T01:11:53.217Z,99500.66
2023-05-15T01:14:56.748Z,99500.83
2023-05-15T01:17:58.821Z,99495.67
2023-05-15T01:21:10.038Z,99495.71
2023-05-15T01:24:16.219Z,99493.73
2023-05-15T01:27:39.355Z,99498.55
2023-05-15T01:30:45.161Z,99503.15
2023-05-15T01:33:54.405Z,99500.42
2023-05-15T01:37:02.573Z,99503.60
2023-05-15T01:40:08.735Z,99501.49
2023-05-15T01:43:26.815Z,99501.13
2023-05-15T01:46:31.644Z,99501.30
2023-05-15T01:49:37.256Z,99497.46
2023-05-15T01:52:44.234Z,99494.45
2023-05-15T01:55:48.509Z,99494.05
2023-05-15T01:58:52.303Z,99494.34
2023-05-15T02:04:17.247Z,99489.96
2023-05-15T02:07:20.581Z,99491.44
2023-05-15T02:10:24.080Z,99490.03
2023-05-15T02:13:30.132Z,99491.11
2023-05-15T02:16:32.405Z,99489.61
2023-05-15T02:19:34.530Z,99492.91
2023-05-15T02:22:38.374Z,99490.64
2023-05-15T02:26:24.659Z,99493.84
2023-05-15T02:29:30.106Z,99492.96
2023-05-15T02:32:56.816Z,99493.84
2023-05-15T02:36:05.821Z,99493.48
2023-05-15T02:39:13.698Z,99495.49
2023-05-15T02:42:16.762Z,99492.66
2023-05-15T02:45:20.990Z,99496.27
2023-05-15T02:48:23.572Z,99491.69
2023-05-15T02:51:26.045Z,99492.95
2023-05-15T02:54:28.411Z,99488.91
2023-05-15T02:57:30.773Z,99485.08
2023-05-15T03:00:33.266Z,99484.02
2023-05-15T03:03:35.597Z,99485.16
2023-05-15T03:06:37.798Z,99488.62
2023-05-15T03:09:40.000Z,99486.96
2023-05-15T03:12:42.114Z,99482.70
2023-05-15T03:15:45.897Z,99481.31
2023-05-15T03:18:48.217Z,99482.18
2023-05-15T03:21:50.873Z,99484.77
2023-05-15T03:24:53.166Z,99483.73
2023-05-15T03:27:55.438Z,99488.83
2023-05-15T03:30:57.921Z,99497.56
2023-05-15T03:34:00.126Z,99500.66
2023-05-15T03:37:02.400Z,99501.70
2023-05-15T03:40:05.395Z,99501.73
2023-05-15T03:56:33.661Z,99497.61
2023-05-15T03:59:35.923Z,99501.35
2023-05-15T04:04:33.814Z,99498.48
2023-05-15T04:07:36.850Z,99495.54
2023-05-15T04:10:38.962Z,99498.94
2023-05-15T04:13:41.121Z,99502.64
2023-05-15T04:16:43.610Z,99504.28
2023-05-15T04:19:47.690Z,99506.33
2023-05-15T04:22:51.302Z,99509.73
2023-05-15T04:25:53.518Z,99508.76
2023-05-15T04:32:04.900Z,99506.73
2023-05-15T04:35:09.632Z,99499.33
2023-05-15T04:38:12.091Z,99499.55
2023-05-15T04:41:14.278Z,99496.92
2023-05-15T04:44:16.332Z,99499.02
2023-05-15T04:47:18.343Z,99497.98
2023-05-15T04:50:20.469Z,99490.01
2023-05-15T04:53:22.767Z,99483.42
2023-05-15T04:56:25.528Z,99485.56
2023-05-15T04:59:30.562Z,99482.60
2023-05-15T05:02:32.734Z,99484.60
2023-05-15T05:05:35.381Z,99479.92
2023-05-15T05:08:37.564Z,99478.15
2023-05-15T05:11:43.996Z,99480.21
2023-05-15T05:14:46.332Z,99479.77
2023-05-15T05:17:48.338Z,99480.17
2023-05-15T05:20:59.313Z,99476.25
2023-05-15T05:24:01.689Z,99476.15
2023-05-15T05:27:05.114Z,99476.77
2023-05-15T05:30:08.258Z,99483.07
2023-05-15T05:33:10.486Z,99480.09
2023-05-15T05:36:12.788Z,99475.41
2023-05-15T05:39:16.507Z,99476.02
2023-05-15T05:42:21.443Z,99472.86
2023-05-15T05:45:25.363Z,99469.08
2023-05-15T05:48:28.761Z,99469.05
2023-05-15T05:51:31.632Z,99468.11
2023-05-15T05:54:34.111Z,99466.86
2023-05-15T05:57:36.220Z,99464.73
2023-05-15T06:04:17.579Z,99464.96
2023-05-15T06:07:20.904Z,99463.38
2023-05-15T06:10:23.392Z,99463.30
2023-05-15T06:13:25.748Z,99460.21
2023-05-15T06:16:27.849Z,99465.75
2023-05-15T06:19:30.647Z,99463.95
2023-05-15T06:22:33.404Z,99462.55
2023-05-15T06:25:36.521Z,99461.18
2023-05-15T06:28:38.760Z,99462.66
2023-05-15T06:31:41.353Z,99460.80
2023-05-15T06:34:44.530Z,99458.55
2023-05-15T06:37:50.654Z,99453.20
2023-05-15T06:40:52.893Z,99447.73
2023-05-15T06:43:55.507Z,99446.73
2023-05-15T06:46:58.766Z,99442.17
2023-05-15T06:50:01.105Z,99442.31
2023-05-15T06:53:03.387Z,99446.71
2023-05-15T06:56:07.193Z,99443.55
2023-05-15T06:59:09.562Z,99440.69
2023-05-15T07:02:11.904Z,99441.46
2023-05-15T07:05:14.923Z,99440.40
2023-05-15T07:08:17.678Z,99437.83
2023-05-15T07:11:19.945Z,99437.38
2023-05-15T07:14:22.074Z,99437.85
2023-05-15T07:17:24.760Z,99436.25
2023-05-15T07:20:30.300Z,99432.63
2023-05-15T07:23:34.531Z,99432.35
2023-05-15T07:26:46.579Z,99431.83
2023-05-15T07:29:59.532Z,99434.10
2023-05-15T07:33:01.892Z,99431.80
2023-05-15T07:36:04.806Z,99425.05
2023-05-15T07:39:07.311Z,99425.03
2023-05-15T07:42:09.560Z,99423.02
2023-05-15T07:45:12.378Z,99422.36
2023-05-15T07:48:20.292Z,99416.61
2023-05-15T07:51:22.407Z,99416.19
2023-05-15T07:54:24.582Z,99411.46
2023-05-15T07:57:26.916Z,99407.00
2023-05-15T08:00:30.003Z,99403.10
2023-05-15T08:03:32.414Z,99398.17
2023-05-15T08:06:35.405Z,99404.80
2023-05-15T08:09:37.799Z,99398.42
2023-05-15T08:12:46.302Z,99394.16
2023-05-15T08:15:48.368Z,99390.45
2023-05-15T08:18:53.753Z,99392.96
2023-05-15T08:21:56.051Z,99392.05
2023-05-15T08:25:00.515Z,99390.83
2023-05-15T08:28:03.261Z,99392.52
2023-05-15T08:31:05.338Z,99388.23
2023-05-15T08:34:07.336Z,99393.22
2023-05-15T08:37:09.316Z,99392.30
2023-05-15T08:40:12.599Z,99389.94
2023-05-15T08:43:17.884Z,99386.67
2023-05-15T08:46:20.329Z,99385.45
2023-05-15T08:49:25.457Z,99376.30
2023-05-15T08:52:28.916Z,99375.46
2023-05-15T08:55:31.068Z,99379.77
2023-05-15T08:58:33.945Z,99372.85
2023-05-15T09:01:36.516Z,99373.49
2023-05-15T09:04:38.597Z,99367.35
2023-05-15T09:07:42.906Z,99370.88
2023-05-15T09:10:45.977Z,99368.13
2023-05-15T09:13:47.912Z,99364.31
2023-05-15T09:16:53.691Z,99365.39
2023-05-15T09:19:56.089Z,99359.77
2023-05-15T09:22:59.855Z,99359.25
2023-05-15T09:26:02.199Z,99352.52
2023-05-15T09:29:05.338Z,99352.55
2023-05-15T09:32:13.000Z,99349.07
2023-05-15T09:35:34.986Z,99347.61
2023-05-15T09:38:48.687Z,99349.79
2023-05-15T09:41:54.758Z,99349.02
2023-05-15T09:44:57.006Z,99348.62
2023-05-15T09:48:06.938Z,99352.52
2023-05-15T09:51:20.281Z,99354.19
2023-05-15T09:54:24.320Z,99348.77
2023-05-15T09:57:26.788Z,99349.80
2023-05-15T10:04:16.740Z,99348.50
2023-05-15T10:07:31.693Z,99345.16
2023-05-15T10:10:33.957Z,99346.96
2023-05-15T10:13:37.241Z,99342.21
2023-05-15T10:16:40.937Z,99333.09
2023-05-15T10:19:56.815Z,99327.40
2023-05-15T10:23:04.176Z,99329.66
2023-05-15T10:26:14.570Z,99333.64
2023-05-15T10:29:21.403Z,99330.91
2023-05-15T10:32:26.260Z,99325.11
2023-05-15T10:35:29.479Z,99319.83
2023-05-15T10:38:33.215Z,99319.52
2023-05-15T10:41:40.378Z,99322.73
2023-05-15T10:44:42.730Z,99322.96
2023-05-15T10:47:45.966Z,99312.86
2023-05-15T10:50:52.441Z,99305.68
2023-05-15T10:53:56.824Z,99310.09
2023-05-15T10:56:59.156Z,99303.84
2023-05-15T11:00:02.493Z,99296.93
2023-05-15T11:03:05.690Z,99295.54
2023-05-15T11:06:10.019Z,99291.71
2023-05-15T11:09:28.128Z,99283.96
2023-05-15T11:12:56.940Z,99286.60
2023-05-15T11:15:59.176Z,99284.80
2023-05-15T11:19:01.296Z,99280.14
2023-05-15T11:22:09.383Z,99278.52
2023-05-15T11:25:16.189Z,99273.83
2023-05-15T11:28:22.754Z,99267.63
2023-05-15T11:31:31.204Z,99262.27
2023-05-15T11:34:35.098Z,99258.61
2023-05-15T11:37:49.288Z,99255.42
2023-05-15T11:41:18.554Z,99254.94
2023-05-15T11:44:24.836Z,99257.32
2023-05-15T11:47:30.086Z,99253.92
2023-05-15T11:50:34.483Z,99253.88
2023-05-15T11:53:39.944Z,99247.89
2023-05-15T11:56:47.112Z,99240.55
2023-05-15T11:59:49.300Z,99238.77
2023-05-15T12:02:51.797Z,99238.44
2023-05-15T12:05:59.052Z,99235.14
2023-05-15T12:09:02.442Z,99228.66
2023-05-15T12:12:06.824Z,99233.48
2023-05-15T12:15:11.246Z,99228.02
2023-05-15T12:18:14.365Z,99229.84
2023-05-15T12:21:17.511Z,99222.89
2023-05-15T12:24:21.908Z,99213.15
2023-05-15T12:27:24.065Z,99210.13
2023-05-15T12:30:27.237Z,99206.80
2023-05-15T12:33:29.945Z,99207.30
2023-05-15T12:36:32.052Z,99211.17
2023-05-15T12:39:34.184Z,99220.58
2023-05-15T12:42:44.288Z,99222.30
2023-05-15T12:45:47.113Z,99215.63
2023-05-15T12:48:50.155Z,99217.35
2023-05-15T12:51:52.638Z,99219.16
2023-05-15T12:54:55.004Z,99214.91
2023-05-15T12:58:02.448Z,99213.65
2023-05-15T13:01:04.776Z,99212.61
2023-05-15T13:04:07.723Z,99212.66
2023-05-15T13:07:10.424Z,99212.80
2023-05-15T13:10:13.392Z,99217.98
2023-05-15T13:13:17.003Z,99215.31
2023-05-15T13:16:25.477Z,99218.73
2023-05-15T13:19:27.791Z,99219.61
2023-05-15T13:22:30.426Z,99212.90
2023-05-15T13:25:32.740Z,99213.39
2023-05-15T13:28:35.161Z,99213.57
2023-05-15T13:31:37.337Z,99215.17
2023-05-15T13:34:39.887Z,99208.30
2023-05-15T13:37:42.087Z,99202.95
2023-05-15T13:40:44.217Z,99203.60
2023-05-15T13:43:47.986Z,99200.97
2023-05-15T13:46:50.030Z,99204.66
2023-05-15T13:49:52.678Z,99196.52
2023-05-15T13:52:55.048Z,99190.67
2023-05-15T13:55:57.249Z,99180.38
2023-05-15T13:58:59.492Z,99178.20
2023-05-15T14:04:16.233Z,99179.44
2023-05-15T14:07:18.623Z,99180.66
2023-05-15T14:10:20.879Z,99180.79
2023-05-15T14:13:24.168Z,99180.49
2023-05-15T14:16:26.264Z,99174.45
2023-05-15T14:19:28.868Z,99167.62
2023-05-15T14:22:31.186Z,99162.55
2023-05-15T14:25:33.379Z,99164.46
2023-05-15T14:28:35.499Z,99172.02
2023-05-15T14:31:37.649Z,99169.77
2023-05-15T14:34:40.823Z,99164.08
2023-05-15T14:37:43.730Z,99159.92
2023-05-15T14:40:45.779Z,99159.75
2023-05-15T14:43:47.863Z,99161.77
2023-05-15T14:47:09.447Z,99154.42
2023-05-15T14:50:11.507Z,99155.16
2023-05-15T14:53:13.787Z,99155.54
2023-05-15T14:56:15.997Z,99148.48
2023-05-15T14:59:18.241Z,99144.95
2023-05-15T15:02:20.347Z,99143.35
2023-05-15T15:05:22.614Z,99142.27
2023-05-15T15:08:25.367Z,99140.77
2023-05-15T15:11:27.420Z,99139.60
2023-05-15T15:14:30.583Z,99135.98
2023-05-15T15:17:32.834Z,99133.02
2023-05-15T15:20:35.784Z,99127.58
2023-05-15T15:23:38.456Z,99132.56
2023-05-15T15:26:40.919Z,99135.14
2023-05-15T15:29:43.122Z,99128.98
2023-05-15T15:32:45.942Z,99127.21
2023-05-15T15:35:48.488Z,99129.67
2023-05-15T15:38:51.060Z,99126.93
2023-05-15T15:41:53.331Z,99129.83
2023-05-15T15:44:56.125Z,99130.03
2023-05-15T15:47:58.659Z,99133.36
2023-05-15T15:51:00.932Z,99130.46
2023-05-15T15:54:03.252Z,99131.52
2023-05-15T15:57:06.047Z,99136.24
2023-05-15T16:00:09.773Z,99134.08
2023-05-15T16:03:12.254Z,99131.07
2023-05-15T16:06:14.866Z,99126.72
2023-05-15T16:09:20.238Z,99129.15
2023-05-15T16:12:22.327Z,99128.35
2023-05-15T16:15:24.821Z,99127.66
2023-05-15T16:18:27.064Z,99127.05
2023-05-15T16:21:29.329Z,99128.39
2023-05-15T16:24:31.401Z,99127.41
2023-05-15T16:27:33.500Z,99132.05
2023-05-15T16:33:42.652Z,99123.89
2023-05-15T16:36:45.039Z,99130.16
2023-05-15T16:39:47.071Z,99128.01
2023-05-15T16:42:49.181Z,99123.84
2023-05-15T16:45:51.825Z,99120.31
2023-05-15T16:48:54.159Z,99120.38
2023-05-15T16:51:56.595Z,99122.63
2023-05-15T16:54:58.993Z,99125.16
2023-05-15T16:58:01.223Z,99124.52
2023-05-15T17:01:03.312Z,99123.09
2023-05-15T17:04:06.889Z,99124.84
2023-05-15T17:07:09.506Z,99127.05
2023-05-15T17:10:12.940Z,99130.48
2023-05-15T17:13:15.259Z,99134.31
2023-05-15T17:16:17.367Z,99138.95
2023-05-15T17:19:19.754Z,99145.26
2023-05-15T17:22:22.660Z,99147.91
2023-05-15T17:25:25.185Z,99146.90
2023-05-15T17:28:27.633Z,99142.45
2023-05-15T17:31:30.200Z,99142.64
2023-05-15T17:34:32.442Z,99141.90
2023-05-15T17:37:34.746Z,99144.78
2023-05-15T17:40:36.975Z,99150.40
2023-05-15T17:43:39.092Z,99154.27
2023-05-15T17:46:41.272Z,99158.59
2023-05-15T17:49:43.342Z,99160.04
2023-05-15T17:52:45.464Z,99159.55
2023-05-15T17:55:48.496Z,99162.64
2023-05-15T17:58:50.772Z,99165.04
2023-05-15T18:04:36.364Z,99171.77
2023-05-15T18:07:38.846Z,99177.83
2023-05-15T18:10:40.824Z,99178.54
2023-05-15T18:13:43.604Z,99183.08
2023-05-15T18:16:45.716Z,99178.90
2023-05-15T18:19:51.113Z,99182.63
2023-05-15T18:22:53.081Z,99186.92
2023-05-15T18:25:55.048Z,99190.31
2023-05-15T18:28:57.287Z,99193.17
2023-05-15T18:31:59.311Z,99194.18
2023-05-15T18:35:02.271Z,99193.65
2023-05-15T18:38:04.870Z,99194.69
2023-05-15T18:41:07.034Z,99200.90
2023-05-15T18:44:10.424Z,99200.63
2023-05-15T18:47:12.673Z,99206.34
2023-05-15T18:50:15.857Z,99205.95
2023-05-15T18:53:18.108Z,99210.70
2023-05-15T18:56:21.284Z,99212.67
2023-05-15T18:59:23.557Z,99211.00
2023-05-15T19:02:26.193Z,99210.23
2023-05-15T19:05:28.518Z,99207.48
2023-05-15T19:08:30.698Z,99205.11
2023-05-15T19:11:32.979Z,99202.19
2023-05-15T19:14:35.651Z,99204.21
2023-05-15T19:17:38.296Z,99207.48
2023-05-15T19:20:41.236Z,99209.52
2023-05-15T19:23:43.463Z,99205.83
2023-05-15T19:26:45.855Z,99207.92
2023-05-15T19:29:47.946Z,99211.89
2023-05-15T19:32:49.993Z,99215.37
2023-05-15T19:35:52.055Z,99221.02
2023-05-15T19:38:54.251Z,99219.84
2023-05-15T19:41:57.535Z,99223.26
2023-05-15T19:44:59.579Z,99225.65
2023-05-15T19:48:01.657Z,99222.58
2023-05-15T19:51:03.840Z,99227.55
2023-05-15T19:54:06.799Z,99228.69
2023-05-15T19:57:09.689Z,99236.75
2023-05-15T20:00:13.120Z,99237.55
2023-05-15T20:03:15.676Z,99239.33
2023-05-15T20:06:18.019Z,99238.66
2023-05-15T20:09:20.448Z,99239.25
2023-05-15T20:12:22.631Z,99240.61
2023-05-15T20:15:25.271Z,99237.15
2023-05-15T20:18:30.053Z,99240.83
2023-05-15T20:21:33.881Z,99243.81
2023-05-15T20:24:35.993Z,99248.19
2023-05-15T20:27:38.476Z,99249.52
2023-05-15T20:30:41.232Z,99250.39
2023-05-15T20:33:43.488Z,99249.20
2023-05-15T20:36:45.718Z,99254.95
2023-05-15T20:39:47.928Z,99251.05
2023-05-15T20:42:51.161Z,99253.89
2023-05-15T20:45:53.724Z,99251.90
2023-05-15T20:48:56.225Z,99248.83
2023-05-15T20:51:58.193Z,99250.61
2023-05-15T20:55:00.859Z,99246.16
2023-05-15T20:58:03.769Z,99249.94
2023-05-15T21:01:06.566Z,99248.58
2023-05-15T21:04:09.210Z,99249.64
2023-05-15T21:07:11.400Z,99254.51
2023-05-15T21:10:13.492Z,99255.50
2023-05-15T21:13:17.289Z,99252.38
2023-05-15T21:16:19.672Z,99243.31
2023-05-15T21:19:22.290Z,99240.96
2023-05-15T21:22:24.646Z,99241.54
2023-05-15T21:25:26.465Z,99241.10
2023-05-15T21:28:29.342Z,99240.92
2023-05-15T21:31:31.757Z,99246.36
2023-05-15T21:34:34.005Z,99253.91
2023-05-15T21:37:36.475Z,99256.61
2023-05-15T21:40:38.761Z,99254.34
2023-05-15T21:43:40.957Z,99250.96
2023-05-15T21:46:43.051Z,99249.48
2023-05-15T21:49:44.992Z,99247.52
2023-05-15T21:52:49.918Z,99253.95
2023-05-15T21:55:59.526Z,99254.82
2023-05-15T21:59:01.421Z,99255.50
2023-05-15T22:04:17.619Z,99252.55
2023-05-15T22:07:19.831Z,99248.04
2023-05-15T22:10:22.874Z,99248.66
2023-05-15T22:13:25.286Z,99247.33
2023-05-15T22:16:27.777Z,99247.23
2023-05-15T22:19:33.478Z,99244.48
2023-05-15T22:22:36.522Z,99242.20
2023-05-15T22:25:38.813Z,99239.88
2023-05-15T22:28:42.353Z,99242.10
2023-05-15T22:31:44.509Z,99243.51
2023-05-15T22:34:46.803Z,99240.21
2023-05-15T22:37:49.660Z,99241.40
2023-05-15T22:40:53.012Z,99237.28
2023-05-15T22:43:55.039Z,99233.27
2023-05-15T22:46:57.681Z,99231.45
2023-05-15T22:50:00.051Z,99229.11
2023-05-15T22:53:02.194Z,99221.64
2023-05-15T22:56:04.585Z,99218.99
2023-05-15T22:59:07.164Z,99213.50
2023-05-15T23:02:09.604Z,99216.02
2023-05-15T23:05:11.988Z,99212.64
2023-05-15T23:08:14.152Z,99208.70
2023-05-15T23:11:16.525Z,99206.48
2023-05-15T23:14:18.805Z,99203.99
2023-05-15T23:17:23.077Z,99202.76
2023-05-15T23:20:26.475Z,99197.56
2023-05-15T23:23:28.920Z,99190.53
2023-05-15T23:26:30.970Z,99187.63
2023-05-15T23:29:34.152Z,99184.00
2023-05-15T23:32:36.281Z,99182.28
2023-05-15T23:35:38.605Z,99183.77
2023-05-15T23:38:40.670Z,99181.92
2023-05-15T23:41:42.728Z,99177.80
2023-05-15T23:44:45.036Z,99182.05
2023-05-15T23:47:47.163Z,99179.85
2023-05-15T23:50:49.960Z,99176.95
2023-05-15T23:53:51.902Z,99175.21
2023-05-15T23:56:53.995Z,99174.98
2023-05-15T23:59:56.418Z,99179.02
